createdAt,value
2023-01-28T00:01:10.191Z,32.70
2023-01-28T00:03:39.744Z,27.80
2023-01-28T00:06:08.950Z,29.90
2023-01-28T00:08:36.817Z,28.00
2023-01-28T00:11:06.576Z,29.20
2023-01-28T00:13:35.765Z,30.60
2023-01-28T00:16:04.790Z,29.30
2023-01-28T00:18:34.360Z,25.80
2023-01-28T00:21:06.480Z,28.60
2023-01-28T00:23:36.083Z,29.40
2023-01-28T00:26:04.832Z,28.00
2023-01-28T00:28:35.190Z,28.80
2023-01-28T00:31:24.969Z,28.90
2023-01-28T00:33:55.629Z,28.50
2023-01-28T00:36:27.053Z,27.60
2023-01-28T00:38:58.363Z,24.40
2023-01-28T00:41:28.071Z,23.90
2023-01-28T00:43:55.160Z,23.20
2023-01-28T00:46:22.907Z,21.80
2023-01-28T00:48:51.308Z,20.70
2023-01-28T00:51:21.848Z,22.90
2023-01-28T00:53:53.790Z,22.00
2023-01-28T00:56:22.397Z,22.10
2023-01-28T00:58:49.682Z,24.60
2023-01-28T01:01:23.588Z,21.70
2023-01-28T01:03:57.147Z,20.80
2023-01-28T01:06:27.251Z,23.20
2023-01-28T01:08:55.124Z,23.00
2023-01-28T01:11:23.113Z,21.60
2023-01-28T01:13:59.709Z,24.10
2023-01-28T01:16:28.804Z,23.20
2023-01-28T01:18:59.130Z,26.40
2023-01-28T01:21:32.171Z,24.10
2023-01-28T01:24:01.408Z,22.30
2023-01-28T01:26:32.239Z,22.80
2023-01-28T01:29:02.404Z,25.70
2023-01-28T01:31:31.282Z,25.80
2023-01-28T01:34:02.416Z,24.60
2023-01-28T01:36:32.561Z,25.20
2023-01-28T01:39:00.861Z,25.00
2023-01-28T01:41:31.179Z,24.50
2023-01-28T01:44:03.073Z,22.20
2023-01-28T01:46:39.836Z,24.20
2023-01-28T01:49:25.861Z,25.40
2023-01-28T01:52:03.413Z,24.40
2023-01-28T01:54:30.705Z,24.60
2023-01-28T01:56:57.955Z,24.50
2023-01-28T01:59:27.830Z,24.90
2023-01-28T02:01:57.629Z,24.80
2023-01-28T02:04:27.453Z,24.50
2023-01-28T02:06:55.844Z,24.90
2023-01-28T02:09:35.808Z,24.30
2023-01-28T02:12:24.796Z,25.70
2023-01-28T05:57:01.614Z,29.20
2023-01-28T05:59:33.222Z,25.30
2023-01-28T06:02:04.880Z,29.80
2023-01-28T06:04:36.330Z,26.60
2023-01-28T06:07:07.205Z,26.10
2023-01-28T06:09:41.203Z,27.80
2023-01-28T06:12:10.738Z,28.70
2023-01-28T06:14:55.393Z,27.10
2023-01-28T06:17:45.368Z,28.00
2023-01-28T06:23:04.022Z,25.00
2023-01-28T06:25:36.522Z,25.30
2023-01-28T06:28:12.767Z,26.90
2023-01-28T06:30:42.692Z,26.40
2023-01-28T06:33:11.213Z,30.10
2023-01-28T06:35:39.713Z,28.10
2023-01-28T06:38:09.012Z,30.40
2023-01-28T06:43:08.418Z,25.90
2023-01-28T06:45:39.164Z,27.30
2023-01-28T06:48:12.459Z,27.70
2023-01-28T06:50:42.468Z,28.70
2023-01-28T06:53:11.205Z,28.40
2023-01-28T06:55:39.671Z,26.50
2023-01-28T06:58:08.122Z,27.00
2023-01-28T07:00:39.128Z,27.40
2023-01-28T07:03:07.714Z,27.50
2023-01-28T07:05:41.201Z,27.00
2023-01-28T07:08:10.612Z,25.90
2023-01-28T07:10:39.445Z,27.90
2023-01-28T07:13:11.228Z,25.60
2023-01-28T07:15:39.967Z,25.40
2023-01-28T07:18:11.070Z,25.60
2023-01-28T07:20:43.240Z,24.80
2023-01-28T07:23:18.699Z,25.70
2023-01-28T07:25:48.673Z,26.20
2023-01-28T07:28:24.227Z,29.30
2023-01-28T07:30:54.213Z,28.90
2023-01-28T07:33:26.608Z,27.10
2023-01-28T07:35:58.538Z,28.30
2023-01-28T07:41:10.127Z,27.60
2023-01-28T07:43:39.634Z,26.50
2023-01-28T07:46:10.457Z,28.30
2023-01-28T07:48:39.030Z,27.20
2023-01-28T07:51:09.136Z,27.80
2023-01-28T07:53:37.864Z,28.70
2023-01-28T07:56:07.806Z,27.90
2023-01-28T07:58:36.847Z,24.50
2023-01-28T08:01:06.124Z,27.90
2023-01-28T08:03:34.865Z,28.20
2023-01-28T08:06:03.279Z,24.80
2023-01-28T08:08:32.513Z,27.40
2023-01-28T08:11:12.131Z,28.90
2023-01-28T08:13:41.945Z,28.10
2023-01-28T08:16:10.679Z,29.10
2023-01-28T08:18:41.820Z,29.00
2023-01-28T08:21:10.376Z,28.30
2023-01-28T08:23:40.145Z,29.40
2023-01-28T08:26:10.858Z,23.90
2023-01-28T08:28:41.096Z,26.80
2023-01-28T08:31:10.301Z,24.60
2023-01-28T08:33:38.874Z,22.90
2023-01-28T08:36:08.772Z,25.00
2023-01-28T08:38:40.405Z,22.10
2023-01-28T08:41:12.888Z,25.40
2023-01-28T08:43:44.964Z,26.10
2023-01-28T08:46:14.207Z,26.30
2023-01-28T08:48:47.147Z,25.80
2023-01-28T08:51:15.498Z,27.70
2023-01-28T08:53:47.457Z,26.50
2023-01-28T08:58:54.936Z,27.60
2023-01-28T09:01:35.267Z,24.00
2023-01-28T09:04:04.499Z,35.90
2023-01-28T09:06:37.758Z,25.20
2023-01-28T09:09:09.610Z,21.90
2023-01-28T09:13:42.583Z,21.30
2023-01-28T09:16:15.460Z,23.90
2023-01-28T09:18:54.917Z,24.20
2023-01-28T09:21:37.582Z,23.60
2023-01-28T09:24:06.705Z,24.20
2023-01-28T09:26:36.034Z,26.40
2023-01-28T09:29:05.023Z,22.50
2023-01-28T09:32:02.032Z,24.20
2023-01-28T09:34:35.177Z,23.20
2023-01-28T09:37:29.201Z,20.60
2023-01-28T09:40:12.908Z,20.90
2023-01-28T09:42:48.775Z,21.30
2023-01-28T09:45:49.933Z,20.60
2023-01-28T09:48:37.110Z,23.00
2023-01-28T09:51:12.646Z,25.40
2023-01-28T14:01:22.661Z,11.70
2023-01-28T14:04:30.830Z,11.00
2023-01-28T14:07:25.429Z,11.50
2023-01-28T14:10:33.407Z,10.90
2023-01-28T14:13:57.515Z,10.50
2023-01-28T14:16:43.710Z,10.10
2023-01-28T14:19:13.786Z,10.80
2023-01-28T14:24:16.449Z,10.90
2023-01-28T14:26:47.057Z,10.30
2023-01-28T14:29:56.225Z,10.30
2023-01-28T14:32:30.228Z,9.10
2023-01-28T14:35:02.858Z,9.60
2023-01-28T14:37:33.899Z,10.30
2023-01-28T14:40:17.737Z,9.40
2023-01-28T14:42:46.900Z,9.60
2023-01-28T14:45:36.697Z,9.70
2023-01-28T14:48:28.647Z,11.00
2023-01-28T14:51:04.567Z,10.30
2023-01-28T14:54:21.345Z,10.30
2023-01-28T14:57:22.622Z,11.20
2023-01-28T15:00:01.236Z,12.80
2023-01-28T15:02:29.342Z,13.20
2023-01-28T15:05:10.796Z,17.80
2023-01-28T15:07:38.076Z,13.70
2023-01-28T15:10:14.103Z,14.70
2023-01-28T15:12:48.024Z,14.90
2023-01-28T15:15:19.584Z,13.40
2023-01-28T15:17:47.017Z,13.30
2023-01-28T15:20:20.745Z,14.50
2023-01-28T15:22:52.590Z,12.70
2023-01-28T15:25:23.013Z,14.20
2023-01-28T15:27:51.782Z,12.10
2023-01-28T15:30:27.937Z,14.40
2023-01-28T15:33:02.574Z,26.90
2023-01-28T15:35:32.621Z,16.50
2023-01-28T15:38:02.444Z,12.80
2023-01-28T15:40:43.428Z,12.80
2023-01-28T15:43:22.005Z,11.80
2023-01-28T15:52:14.483Z,12.50
2023-01-28T15:54:46.184Z,10.20
2023-01-28T15:57:27.675Z,12.50
2023-01-28T16:00:13.565Z,15.20
2023-01-28T16:03:08.910Z,16.20
2023-01-28T16:05:43.598Z,15.20
2023-01-28T16:08:25.245Z,14.40
2023-01-28T16:10:59.809Z,14.40
2023-01-28T16:13:36.276Z,14.20
2023-01-28T16:16:05.508Z,14.40
2023-01-28T16:18:42.449Z,11.50
2023-01-28T16:21:13.064Z,10.30
2023-01-28T16:24:14.844Z,10.60
2023-01-28T16:26:43.627Z,8.80
2023-01-28T16:29:16.178Z,9.50
2023-01-28T16:31:49.902Z,9.30
2023-01-28T16:34:21.550Z,7.10
2023-01-28T16:37:00.061Z,8.30
2023-01-28T16:39:31.312Z,8.40
2023-01-28T16:44:33.785Z,7.90
2023-01-28T16:47:04.869Z,9.60
2023-01-28T16:49:37.589Z,7.80
2023-01-28T16:52:11.562Z,8.90
2023-01-28T16:54:46.480Z,10.70
2023-01-28T16:57:20.289Z,9.80
2023-01-28T16:59:50.019Z,8.70
2023-01-28T17:02:20.848Z,9.50
2023-01-28T17:05:06.291Z,10.20
2023-01-28T17:07:38.951Z,9.80
2023-01-28T17:10:13.270Z,10.70
2023-01-28T17:12:45.115Z,10.50
2023-01-28T17:15:18.921Z,10.00
2023-01-28T17:17:59.966Z,9.30
2023-01-28T17:20:37.584Z,10.80
2023-01-28T17:23:09.958Z,12.70
2023-01-28T17:25:43.673Z,12.70
2023-01-28T17:28:13.198Z,12.20
2023-01-28T17:30:50.695Z,11.20
2023-01-28T17:33:23.203Z,11.30
2023-01-28T17:35:59.728Z,12.60
2023-01-28T17:38:33.650Z,11.60
2023-01-28T17:41:08.793Z,12.80
2023-01-28T17:43:43.359Z,12.20
2023-01-28T17:46:15.187Z,11.50
2023-01-28T17:48:46.209Z,11.60
2023-01-28T17:51:14.700Z,12.00
2023-01-28T17:53:50.757Z,13.60
2023-01-28T22:03:40.032Z,10.60
2023-01-28T22:06:09.703Z,11.00
2023-01-28T22:08:41.763Z,11.60
2023-01-28T22:11:11.950Z,9.00
2023-01-28T22:13:45.470Z,10.90
2023-01-28T22:16:18.450Z,10.70
2023-01-28T22:18:50.440Z,11.10
2023-01-28T22:21:33.638Z,9.80
2023-01-28T22:24:03.979Z,10.90
2023-01-28T22:26:35.797Z,8.90
2023-01-28T22:29:10.586Z,10.60
2023-01-28T22:31:41.923Z,11.10
2023-01-28T22:34:11.895Z,10.20
2023-01-28T22:36:44.163Z,12.10
2023-01-28T22:39:15.224Z,12.10
2023-01-28T22:41:44.557Z,11.20
2023-01-28T22:44:13.203Z,11.70
2023-01-28T22:46:41.761Z,11.70
2023-01-28T22:49:12.642Z,11.40
2023-01-28T22:51:41.909Z,11.30
2023-01-28T22:54:16.223Z,11.10
2023-01-28T22:56:50.149Z,10.00
2023-01-28T22:59:21.991Z,11.30
2023-01-28T23:01:50.645Z,10.30
2023-01-28T23:04:21.875Z,10.30
2023-01-28T23:06:50.630Z,9.40
2023-01-28T23:09:19.526Z,11.00
2023-01-28T23:11:48.540Z,9.60
2023-01-28T23:14:37.315Z,10.80
2023-01-28T23:17:30.004Z,9.90
2023-01-28T23:20:17.379Z,10.70
2023-01-28T23:23:07.227Z,9.30
2023-01-28T23:25:38.087Z,10.70
2023-01-28T23:28:07.018Z,9.90
2023-01-28T23:30:44.909Z,10.60
2023-01-28T23:33:15.819Z,11.90
2023-01-28T23:41:43.375Z,9.80
2023-01-28T23:44:18.776Z,10.70
2023-01-28T23:46:47.105Z,11.50
2023-01-28T23:49:15.464Z,11.40
2023-01-28T23:51:45.728Z,11.20
2023-01-28T23:54:16.854Z,11.80
2023-01-28T23:56:45.984Z,12.30
2023-01-28T23:59:17.929Z,11.60
